createdAt,value
2022-09-09T00:01:51.087Z,603.65
2022-09-09T00:04:38.935Z,596.20
2022-09-09T00:07:33.765Z,597.25
2022-09-09T00:10:26.950Z,577.33
2022-09-09T00:13:17.133Z,594.30
2022-09-09T00:16:06.358Z,599.67
2022-09-09T00:19:22.188Z,601.17
2022-09-09T00:22:16.755Z,591.65
2022-09-09T00:24:54.532Z,589.33
2022-09-09T00:27:36.654Z,586.35
2022-09-09T00:30:23.554Z,602.33
2022-09-09T00:32:59.433Z,595.92
2022-09-09T00:35:34.972Z,602.60
2022-09-09T00:38:19.792Z,599.95
2022-09-09T00:41:03.079Z,600.72
2022-09-09T00:43:34.047Z,604.60
2022-09-09T00:46:26.636Z,612.70
2022-09-09T00:49:47.547Z,595.58
2022-09-09T00:52:38.001Z,600.53
2022-09-09T00:55:24.108Z,567.83
2022-09-09T00:57:54.099Z,592.20
2022-09-09T01:00:22.530Z,599.60
2022-09-09T01:03:25.088Z,623.67
2022-09-09T01:06:17.919Z,601.70
2022-09-09T01:09:01.012Z,620.05
2022-09-09T01:11:51.398Z,585.63
2022-09-09T01:14:37.932Z,614.13
2022-09-09T01:17:30.473Z,602.13
2022-09-09T01:20:20.966Z,593.17
2022-09-09T01:23:10.677Z,593.72
2022-09-09T01:25:44.760Z,571.95
2022-09-09T01:28:28.399Z,626.55
2022-09-09T01:31:05.866Z,609.00
2022-09-09T01:33:40.720Z,589.50
2022-09-09T01:36:36.829Z,589.28
2022-09-09T01:39:04.786Z,600.25
2022-09-09T01:41:33.600Z,600.53
2022-09-09T01:44:06.678Z,588.10
2022-09-09T01:46:36.800Z,594.53
2022-09-09T01:49:08.526Z,592.28
2022-09-09T01:51:38.972Z,601.75
2022-09-09T01:54:09.940Z,583.45
2022-09-09T01:57:11.742Z,596.55
2022-09-09T02:00:10.102Z,583.40
2022-09-09T02:03:16.854Z,592.13
2022-09-09T02:06:08.469Z,585.03
2022-09-09T02:08:53.521Z,583.85
2022-09-09T02:11:25.191Z,592.17
2022-09-09T02:14:13.787Z,586.70
2022-09-09T02:16:58.198Z,592.53
2022-09-09T02:20:00.856Z,586.15
2022-09-09T02:22:45.336Z,607.63
2022-09-09T02:25:20.266Z,604.05
2022-09-09T02:27:52.578Z,601.33
2022-09-09T02:30:21.691Z,632.67
2022-09-09T02:32:59.609Z,607.85
2022-09-09T02:35:43.179Z,593.97
2022-09-09T02:38:14.995Z,612.05
2022-09-09T02:40:52.259Z,616.25
2022-09-09T02:43:20.750Z,612.22
2022-09-09T02:46:36.411Z,600.47
2022-09-09T02:49:11.234Z,573.88
2022-09-09T02:51:58.886Z,611.63
2022-09-09T02:54:33.644Z,615.58
2022-09-09T02:57:26.898Z,609.22
2022-09-09T02:59:59.761Z,594.83
2022-09-09T03:02:27.900Z,574.17
2022-09-09T03:05:02.662Z,604.30
2022-09-09T03:07:30.630Z,608.88
2022-09-09T03:09:59.321Z,621.90
2022-09-09T03:12:28.931Z,610.40
2022-09-09T03:14:56.777Z,613.20
2022-09-09T03:17:25.749Z,610.50
2022-09-09T03:19:56.091Z,597.50
2022-09-09T03:22:24.237Z,597.85
2022-09-09T03:24:52.897Z,596.30
2022-09-09T03:27:20.851Z,597.05
2022-09-09T03:29:52.028Z,611.58
2022-09-09T03:32:27.183Z,594.97
2022-09-09T03:34:58.032Z,595.25
2022-09-09T03:37:26.085Z,600.38
2022-09-09T03:39:55.594Z,582.90
2022-09-09T03:42:24.477Z,592.08
2022-09-09T03:44:55.631Z,594.55
2022-09-09T03:47:26.062Z,590.90
2022-09-09T03:49:58.849Z,590.45
2022-09-09T03:52:27.394Z,598.05
2022-09-09T03:54:56.401Z,568.92
2022-09-09T03:57:24.201Z,587.75
2022-09-09T03:59:52.057Z,580.17
2022-09-09T04:02:20.028Z,594.05
2022-09-09T04:04:48.355Z,569.25
2022-09-09T04:07:16.917Z,579.63
2022-09-09T04:09:45.949Z,581.30
2022-09-09T04:12:15.428Z,593.00
2022-09-09T04:14:43.517Z,580.35
2022-09-09T04:17:12.071Z,584.35
2022-09-09T04:19:39.958Z,581.38
2022-09-09T04:22:08.333Z,581.50
2022-09-09T04:24:36.360Z,580.30
2022-09-09T04:27:04.368Z,586.83
2022-09-09T04:29:34.871Z,607.53
2022-09-09T04:32:03.350Z,588.60
2022-09-09T04:34:32.349Z,591.83
2022-09-09T04:37:01.424Z,604.22
2022-09-09T04:39:29.932Z,578.97
2022-09-09T04:41:59.306Z,586.33
2022-09-09T04:44:27.386Z,589.03
2022-09-09T04:46:57.111Z,585.15
2022-09-09T04:49:25.024Z,584.17
2022-09-09T04:51:53.582Z,605.67
2022-09-09T04:54:21.336Z,609.65
2022-09-09T04:56:51.648Z,584.67
2022-09-09T04:59:20.177Z,584.38
2022-09-09T05:01:52.065Z,594.15
2022-09-09T05:04:20.468Z,592.22
2022-09-09T05:06:48.390Z,605.13
2022-09-09T05:09:16.809Z,588.15
2022-09-09T05:11:46.200Z,584.70
2022-09-09T05:14:27.663Z,585.13
2022-09-09T05:16:57.163Z,589.80
2022-09-09T05:19:25.710Z,594.97
2022-09-09T05:21:54.950Z,580.88
2022-09-09T05:24:29.331Z,581.58
2022-09-09T05:27:02.082Z,590.30
2022-09-09T05:29:30.125Z,585.40
2022-09-09T05:31:58.793Z,598.83
2022-09-09T05:34:26.805Z,581.47
2022-09-09T05:36:54.926Z,579.33
2022-09-09T05:39:24.512Z,580.92
2022-09-09T05:41:52.921Z,586.95
2022-09-09T05:44:21.397Z,601.88
2022-09-09T05:46:49.317Z,583.15
2022-09-09T05:49:18.101Z,578.33
2022-09-09T05:51:46.345Z,578.45
2022-09-09T05:54:16.547Z,581.72
2022-09-09T05:56:51.805Z,582.75
2022-09-09T05:59:21.107Z,581.63
2022-09-09T06:01:49.095Z,584.10
2022-09-09T06:04:32.397Z,584.75
2022-09-09T06:07:02.067Z,586.92
2022-09-09T06:09:31.575Z,589.03
2022-09-09T06:11:59.563Z,594.55
2022-09-09T06:14:28.251Z,595.65
2022-09-09T06:16:58.944Z,587.58
2022-09-09T06:19:31.734Z,594.65
2022-09-09T06:22:00.717Z,574.38
2022-09-09T06:24:31.327Z,595.75
2022-09-09T06:27:01.351Z,598.75
2022-09-09T06:29:33.821Z,589.22
2022-09-09T06:32:04.198Z,583.17
2022-09-09T06:34:32.331Z,595.05
2022-09-09T06:37:01.747Z,591.40
2022-09-09T06:39:36.669Z,601.38
2022-09-09T06:42:05.088Z,589.33
2022-09-09T06:44:51.013Z,604.42
2022-09-09T06:47:25.868Z,592.40
2022-09-09T06:49:54.591Z,616.55
2022-09-09T06:52:22.407Z,616.15
2022-09-09T06:54:51.754Z,600.90
2022-09-09T07:00:15.189Z,619.45
2022-09-09T07:02:43.177Z,609.40
2022-09-09T07:05:12.542Z,655.92
2022-09-09T07:07:42.889Z,623.53
2022-09-09T07:10:13.036Z,636.88
2022-09-09T07:12:41.422Z,657.38
2022-09-09T07:15:12.137Z,647.10
2022-09-09T07:17:43.293Z,658.30
2022-09-09T07:20:11.734Z,650.13
2022-09-09T07:22:40.359Z,659.97
2022-09-09T07:25:09.477Z,667.10
2022-09-09T07:27:38.373Z,665.00
2022-09-09T07:30:07.823Z,673.25
2022-09-09T07:32:36.690Z,676.60
2022-09-09T07:35:04.975Z,684.85
2022-09-09T07:37:32.789Z,692.55
2022-09-09T07:40:03.271Z,691.40
2022-09-09T07:42:32.078Z,700.63
2022-09-09T07:45:00.478Z,716.42
2022-09-09T07:47:28.756Z,727.75
2022-09-09T07:49:59.906Z,713.08
2022-09-09T07:52:32.456Z,701.20
2022-09-09T07:55:05.644Z,725.25
2022-09-09T07:57:34.103Z,711.75
2022-09-09T08:00:04.569Z,726.30
2022-09-09T08:02:40.213Z,725.13
2022-09-09T08:05:09.880Z,741.17
2022-09-09T08:07:40.233Z,731.70
2022-09-09T08:10:08.917Z,738.67
2022-09-09T08:12:40.271Z,738.25
2022-09-09T08:15:13.654Z,728.75
2022-09-09T08:17:41.968Z,733.45
2022-09-09T08:20:10.700Z,748.55
2022-09-09T08:22:40.067Z,738.75
2022-09-09T08:25:09.553Z,733.72
2022-09-09T08:27:39.018Z,745.40
2022-09-09T08:30:09.108Z,755.22
2022-09-09T08:32:37.748Z,758.85
2022-09-09T08:35:08.591Z,758.22
2022-09-09T08:37:36.869Z,760.33
2022-09-09T08:40:09.548Z,764.90
2022-09-09T08:42:48.127Z,771.85
2022-09-09T08:45:33.528Z,769.55
2022-09-09T08:48:18.459Z,778.17
2022-09-09T08:50:50.517Z,775.65
2022-09-09T08:53:31.388Z,782.78
2022-09-09T08:56:11.262Z,790.88
2022-09-09T08:58:54.533Z,789.53
2022-09-09T09:02:16.792Z,791.45
2022-09-09T09:05:14.773Z,814.15
2022-09-09T09:07:57.801Z,811.67
2022-09-09T09:11:01.180Z,824.72
2022-09-09T09:13:44.038Z,807.53
2022-09-09T09:16:27.748Z,804.33
2022-09-09T09:18:56.200Z,803.95
2022-09-09T09:22:11.698Z,827.42
2022-09-09T09:24:58.279Z,815.10
2022-09-09T09:27:45.087Z,806.03
2022-09-09T09:30:30.048Z,810.03
2022-09-09T09:33:27.933Z,808.53
2022-09-09T09:35:55.984Z,799.60
2022-09-09T09:41:15.941Z,829.05
2022-09-09T09:43:55.533Z,832.13
2022-09-09T09:46:28.316Z,813.33
2022-09-09T09:49:09.831Z,817.97
2022-09-09T09:51:38.853Z,813.90
2022-09-09T09:54:14.314Z,823.58
2022-09-09T09:56:45.015Z,818.00
2022-09-09T09:59:39.526Z,828.97
2022-09-09T10:02:26.675Z,824.13
2022-09-09T10:05:20.985Z,839.70
2022-09-09T10:08:22.163Z,832.08
2022-09-09T10:11:49.269Z,844.38
2022-09-09T10:14:38.677Z,846.72
2022-09-09T10:17:33.822Z,861.15
2022-09-09T10:20:13.692Z,870.50
2022-09-09T10:22:48.617Z,894.10
2022-09-09T10:25:40.907Z,899.05
2022-09-09T10:29:13.279Z,888.10
2022-09-09T10:32:21.612Z,903.05
2022-09-09T10:35:27.121Z,905.30
2022-09-09T10:38:12.104Z,907.58
2022-09-09T10:40:59.184Z,931.47
2022-09-09T10:43:46.548Z,937.00
2022-09-09T10:46:23.859Z,941.25
2022-09-09T10:49:24.331Z,953.05
2022-09-09T10:52:21.928Z,949.65
2022-09-09T10:55:02.820Z,961.83
2022-09-09T10:57:49.794Z,966.22
2022-09-09T11:00:46.736Z,961.35
2022-09-09T11:03:23.562Z,972.20
2022-09-09T11:06:06.069Z,979.10
2022-09-09T11:08:39.550Z,978.40
2022-09-09T11:11:28.206Z,984.60
2022-09-09T11:14:21.636Z,984.92
2022-09-09T11:16:57.274Z,979.75
2022-09-09T11:19:36.918Z,978.08
2022-09-09T11:22:52.005Z,980.38
2022-09-09T11:25:23.604Z,976.92
2022-09-09T11:28:12.952Z,980.78
2022-09-09T11:31:17.822Z,973.20
2022-09-09T11:34:31.613Z,975.13
2022-09-09T11:37:33.256Z,977.55
2022-09-09T11:40:20.519Z,983.33
2022-09-09T11:42:52.160Z,985.80
2022-09-09T11:45:30.244Z,993.45
2022-09-09T11:48:01.171Z,990.70
2022-09-09T11:50:38.604Z,986.88
2022-09-09T11:53:23.685Z,991.35
2022-09-09T11:56:14.459Z,984.92
2022-09-09T11:58:54.536Z,989.08
2022-09-09T12:01:38.127Z,994.47
2022-09-09T12:04:40.791Z,982.15
2022-09-09T12:07:12.340Z,985.13
2022-09-09T12:09:50.082Z,985.65
2022-09-09T12:12:25.226Z,988.13
2022-09-09T12:15:08.317Z,983.28
2022-09-09T12:17:51.633Z,977.50
2022-09-09T12:20:24.659Z,967.92
2022-09-09T12:23:17.312Z,968.03
2022-09-09T12:26:27.976Z,968.67
2022-09-09T12:29:06.861Z,955.28
2022-09-09T12:32:01.558Z,959.33
2022-09-09T12:34:41.147Z,954.53
2022-09-09T12:37:36.421Z,947.38
2022-09-09T12:40:25.743Z,945.90
2022-09-09T12:42:56.311Z,944.75
2022-09-09T12:45:28.049Z,934.50
2022-09-09T12:48:04.601Z,935.90
2022-09-09T12:50:49.906Z,917.92
2022-09-09T12:53:33.965Z,913.08
2022-09-09T12:56:22.606Z,904.70
2022-09-09T12:58:52.954Z,894.85
2022-09-09T13:01:31.139Z,905.75
2022-09-09T13:04:00.008Z,901.00
2022-09-09T13:06:30.846Z,901.10
2022-09-09T13:09:02.095Z,894.00
2022-09-09T13:11:44.405Z,895.78
2022-09-09T13:14:27.397Z,893.92
2022-09-09T13:17:04.606Z,904.47
2022-09-09T13:19:38.956Z,895.83
2022-09-09T13:22:23.466Z,906.45
2022-09-09T13:25:14.954Z,905.40
2022-09-09T13:27:54.421Z,915.58
2022-09-09T13:30:28.690Z,910.90
2022-09-09T13:33:24.062Z,922.05
2022-09-09T13:36:08.383Z,937.50
2022-09-09T13:39:00.571Z,922.90
2022-09-09T13:41:47.861Z,930.40
2022-09-09T13:44:24.025Z,923.65
2022-09-09T13:47:10.176Z,934.72
2022-09-09T13:49:38.727Z,942.63
2022-09-09T13:52:15.384Z,940.45
2022-09-09T13:54:43.877Z,956.78
2022-09-09T13:57:25.476Z,949.30
2022-09-09T14:00:11.315Z,950.47
2022-09-09T14:02:40.202Z,961.38
2022-09-09T14:05:08.210Z,968.22
2022-09-09T14:07:36.084Z,971.72
2022-09-09T14:10:04.121Z,971.00
2022-09-09T14:12:32.020Z,976.60
2022-09-09T14:15:00.879Z,996.00
2022-09-09T14:17:31.565Z,1007.33
2022-09-09T14:19:59.764Z,993.45
2022-09-09T14:22:27.552Z,987.90
2022-09-09T14:25:17.892Z,997.30
2022-09-09T14:27:46.945Z,1002.72
2022-09-09T14:30:14.773Z,1025.63
2022-09-09T14:32:42.527Z,999.97
2022-09-09T14:35:10.378Z,1008.13
2022-09-09T14:37:40.057Z,1000.60
2022-09-09T14:40:08.542Z,997.28
2022-09-09T14:42:36.371Z,995.47
2022-09-09T14:45:04.720Z,1006.85
2022-09-09T14:47:32.502Z,979.00
2022-09-09T14:50:01.985Z,977.75
2022-09-09T14:52:31.230Z,970.60
2022-09-09T14:54:59.041Z,959.88
2022-09-09T14:57:26.904Z,937.17
2022-09-09T14:59:54.730Z,919.13
2022-09-09T15:02:22.757Z,911.45
2022-09-09T15:04:54.448Z,893.05
2022-09-09T15:07:23.282Z,878.03
2022-09-09T15:09:51.418Z,864.20
2022-09-09T15:12:19.873Z,852.15
2022-09-09T15:14:48.144Z,852.60
2022-09-09T15:17:15.922Z,852.08
2022-09-09T15:19:43.737Z,832.78
2022-09-09T15:22:11.475Z,839.08
2022-09-09T15:24:39.303Z,832.15
2022-09-09T15:27:07.134Z,829.90
2022-09-09T15:29:34.938Z,822.90
2022-09-09T15:32:03.129Z,821.30
2022-09-09T15:34:30.962Z,816.53
2022-09-09T15:37:00.921Z,823.63
2022-09-09T15:39:29.300Z,824.38
2022-09-09T15:41:57.838Z,832.17
2022-09-09T15:44:26.518Z,832.90
2022-09-09T15:46:57.594Z,839.65
2022-09-09T15:49:27.338Z,839.72
2022-09-09T15:52:03.313Z,847.53
2022-09-09T15:54:40.090Z,844.40
2022-09-09T15:57:12.519Z,856.80
2022-09-09T15:59:41.250Z,865.65
2022-09-09T16:02:11.113Z,870.55
2022-09-09T16:04:39.082Z,875.88
2022-09-09T16:07:07.228Z,877.05
2022-09-09T16:09:36.120Z,881.40
2022-09-09T16:12:10.736Z,881.97
2022-09-09T16:14:39.617Z,875.47
2022-09-09T16:17:07.869Z,879.42
2022-09-09T16:19:36.081Z,875.65
2022-09-09T16:22:05.114Z,880.22
2022-09-09T16:24:33.079Z,872.95
2022-09-09T16:27:01.019Z,878.08
2022-09-09T16:29:28.884Z,883.20
2022-09-09T16:32:00.054Z,878.22
2022-09-09T16:34:34.577Z,870.08
2022-09-09T16:37:03.169Z,874.17
2022-09-09T16:39:31.090Z,873.83
2022-09-09T16:41:58.878Z,875.13
2022-09-09T16:44:27.186Z,883.03
2022-09-09T16:47:00.467Z,877.78
2022-09-09T16:49:31.868Z,867.35
2022-09-09T16:52:00.587Z,866.70
2022-09-09T16:54:30.091Z,869.72
2022-09-09T16:56:58.673Z,862.58
2022-09-09T16:59:27.622Z,852.03
2022-09-09T17:01:55.962Z,860.15
2022-09-09T17:04:28.919Z,844.75
2022-09-09T17:07:01.345Z,844.20
2022-09-09T17:09:30.305Z,830.83
2022-09-09T17:11:59.505Z,825.30
2022-09-09T17:14:27.400Z,840.42
2022-09-09T17:16:55.134Z,846.88
2022-09-09T17:19:23.321Z,836.55
2022-09-09T17:22:16.861Z,836.08
2022-09-09T17:24:39.872Z,835.58
2022-09-09T17:27:08.208Z,833.08
2022-09-09T17:29:36.999Z,835.38
2022-09-09T17:32:06.479Z,825.28
2022-09-09T17:34:36.025Z,828.80
2022-09-09T17:37:05.337Z,826.60
2022-09-09T17:39:33.836Z,807.13
2022-09-09T17:42:01.772Z,825.67
2022-09-09T17:44:29.983Z,801.10
2022-09-09T17:46:58.164Z,775.33
2022-09-09T17:49:26.265Z,782.47
2022-09-09T17:51:55.457Z,771.65
2022-09-09T17:54:23.973Z,765.05
2022-09-09T17:56:51.872Z,760.05
2022-09-09T17:59:20.329Z,744.20
2022-09-09T18:01:52.996Z,768.90
2022-09-09T18:04:21.054Z,751.03
2022-09-09T18:06:52.821Z,754.10
2022-09-09T18:09:25.770Z,764.70
2022-09-09T18:11:56.998Z,733.63
2022-09-09T18:14:31.480Z,731.38
2022-09-09T18:17:01.613Z,721.88
2022-09-09T18:19:33.118Z,736.08
2022-09-09T18:22:02.884Z,725.80
2022-09-09T18:24:31.867Z,715.75
2022-09-09T18:26:59.814Z,709.00
2022-09-09T18:29:27.865Z,689.25
2022-09-09T18:31:56.273Z,701.42
2022-09-09T18:34:25.966Z,703.22
2022-09-09T18:36:55.833Z,704.42
2022-09-09T18:39:28.031Z,697.15
2022-09-09T18:42:01.641Z,692.50
2022-09-09T18:44:33.346Z,681.95
2022-09-09T18:47:01.825Z,675.88
2022-09-09T18:49:30.062Z,677.85
2022-09-09T18:51:58.044Z,675.97
2022-09-09T18:54:30.193Z,703.83
2022-09-09T18:57:00.765Z,673.28
2022-09-09T18:59:29.651Z,664.50
2022-09-09T19:01:57.950Z,661.45
2022-09-09T19:04:27.378Z,660.47
2022-09-09T19:06:59.822Z,651.55
2022-09-09T19:09:31.706Z,649.45
2022-09-09T19:12:01.288Z,652.92
2022-09-09T19:14:29.756Z,650.30
2022-09-09T19:16:57.980Z,655.22
2022-09-09T19:19:31.218Z,647.30
2022-09-09T19:22:00.607Z,648.42
2022-09-09T19:24:32.006Z,637.08
2022-09-09T19:27:04.598Z,639.67
2022-09-09T19:29:36.525Z,639.47
2022-09-09T19:34:53.159Z,631.50
2022-09-09T19:37:22.490Z,636.78
2022-09-09T19:39:50.807Z,622.58
2022-09-09T19:42:19.245Z,633.45
2022-09-09T19:44:47.518Z,631.90
2022-09-09T19:47:15.691Z,641.88
2022-09-09T19:49:47.003Z,649.55
2022-09-09T19:52:17.083Z,635.22
2022-09-09T19:54:46.761Z,636.60
2022-09-09T19:57:16.199Z,624.22
2022-09-09T19:59:44.108Z,621.25
2022-09-09T20:02:15.913Z,635.70
2022-09-09T20:04:44.623Z,616.75
2022-09-09T20:07:12.989Z,622.97
2022-09-09T20:09:40.768Z,630.83
2022-09-09T20:12:08.723Z,622.83
2022-09-09T20:14:39.562Z,616.38
2022-09-09T20:17:08.285Z,626.67
2022-09-09T20:19:36.215Z,626.97
2022-09-09T20:22:04.420Z,620.00
2022-09-09T20:24:32.193Z,625.15
2022-09-09T20:26:59.990Z,630.42
2022-09-09T20:29:27.799Z,628.83
2022-09-09T20:31:55.614Z,628.92
2022-09-09T20:34:25.957Z,629.17
2022-09-09T20:36:54.713Z,624.67
2022-09-09T20:39:22.569Z,613.45
2022-09-09T20:41:50.636Z,627.55
2022-09-09T20:44:24.268Z,643.58
2022-09-09T20:47:02.819Z,647.70
2022-09-09T20:49:30.955Z,627.10
2022-09-09T20:51:58.831Z,640.22
2022-09-09T20:54:30.316Z,625.22
2022-09-09T20:57:00.395Z,634.55
2022-09-09T20:59:34.746Z,616.00
2022-09-09T21:02:03.441Z,619.67
2022-09-09T21:04:31.671Z,620.83
2022-09-09T21:06:59.621Z,636.42
2022-09-09T21:09:27.377Z,620.67
2022-09-09T21:11:55.261Z,618.75
2022-09-09T21:14:23.125Z,618.88
2022-09-09T21:16:51.186Z,631.28
2022-09-09T21:19:18.949Z,625.63
2022-09-09T21:21:47.947Z,647.30
2022-09-09T21:24:17.008Z,640.15
2022-09-09T21:26:44.940Z,620.53
2022-09-09T21:29:13.233Z,621.00
2022-09-09T21:31:43.178Z,629.65
2022-09-09T21:34:13.470Z,609.40
2022-09-09T21:36:41.322Z,616.10
2022-09-09T21:39:09.301Z,627.17
2022-09-09T21:41:37.066Z,621.63
2022-09-09T21:44:04.862Z,623.70
2022-09-09T21:46:32.745Z,622.78
2022-09-09T21:49:03.509Z,619.95
2022-09-09T21:51:31.305Z,625.85
2022-09-09T21:53:59.067Z,618.80
2022-09-09T21:56:27.052Z,621.72
2022-09-09T21:58:59.687Z,613.92
2022-09-09T22:01:27.546Z,611.80
2022-09-09T22:03:55.748Z,623.03
2022-09-09T22:06:23.554Z,615.80
2022-09-09T22:08:51.728Z,605.58
2022-09-09T22:11:22.544Z,608.55
2022-09-09T22:13:53.197Z,617.95
2022-09-09T22:16:23.552Z,620.90
2022-09-09T22:19:01.829Z,608.70
2022-09-09T22:21:33.042Z,601.92
2022-09-09T22:24:04.541Z,610.20
2022-09-09T22:26:35.084Z,608.35
2022-09-09T22:29:04.989Z,615.25
2022-09-09T22:31:34.100Z,604.38
2022-09-09T22:34:02.952Z,605.42
2022-09-09T22:36:31.900Z,618.17
2022-09-09T22:39:00.040Z,606.97
2022-09-09T22:41:30.018Z,616.28
2022-09-09T22:43:58.971Z,610.03
2022-09-09T22:46:26.873Z,597.83
2022-09-09T22:48:55.042Z,608.67
2022-09-09T22:51:23.004Z,615.83
2022-09-09T22:53:50.920Z,603.55
2022-09-09T22:56:20.738Z,609.60
2022-09-09T22:58:53.341Z,607.70
2022-09-09T23:01:22.366Z,606.20
2022-09-09T23:03:51.337Z,601.35
2022-09-09T23:06:23.033Z,587.72
2022-09-09T23:09:00.585Z,611.00
2022-09-09T23:11:33.355Z,606.45
2022-09-09T23:14:04.007Z,591.10
2022-09-09T23:16:41.542Z,592.75
2022-09-09T23:19:16.053Z,591.58
2022-09-09T23:21:46.259Z,601.40
2022-09-09T23:24:17.584Z,603.53
2022-09-09T23:26:46.530Z,602.50
2022-09-09T23:29:15.034Z,599.33
2022-09-09T23:31:45.755Z,592.10
2022-09-09T23:34:14.399Z,597.38
2022-09-09T23:36:42.398Z,583.75
2022-09-09T23:39:13.258Z,596.80
2022-09-09T23:41:41.417Z,585.67
2022-09-09T23:44:10.117Z,592.60
2022-09-09T23:46:38.040Z,580.22
2022-09-09T23:49:08.319Z,581.92
2022-09-09T23:51:37.877Z,587.30
2022-09-09T23:54:06.670Z,588.58
2022-09-09T23:56:42.463Z,579.63
2022-09-09T23:59:11.299Z,586.88
